sensor_id;sensor_type;location;lat;lon;timestamp;pressure;altitude;pressure_sealevel;temperature;humidity
58658;BME280;44428;45.630;13.786;2022-09-09T00:02:20;101124.44;;;20.02;100.00
58658;BME280;44428;45.630;13.786;2022-09-09T00:05:12;101122.78;;;20.01;100.00
58658;BME280;44428;45.630;13.786;2022-09-09T00:07:46;101128.13;;;20.01;100.00
58658;BME280;44428;45.630;13.786;2022-09-09T00:13:06;101129.16;;;20.08;100.00
58658;BME280;44428;45.630;13.786;2022-09-09T00:21:17;101100.09;;;20.30;98.36
58658;BME280;44428;45.630;13.786;2022-09-09T00:23:54;101100.16;;;20.46;95.13
58658;BME280;44428;45.630;13.786;2022-09-09T00:29:09;101101.59;;;20.67;92.38
58658;BME280;44428;45.630;13.786;2022-09-09T00:31:40;101095.25;;;20.76;89.81
58658;BME280;44428;45.630;13.786;2022-09-09T00:34:14;101087.19;;;20.76;89.34
58658;BME280;44428;45.630;13.786;2022-09-09T00:36:42;101086.50;;;20.74;89.20
58658;BME280;44428;45.630;13.786;2022-09-09T00:39:23;101078.09;;;20.69;90.25
58658;BME280;44428;45.630;13.786;2022-09-09T00:45:02;101091.19;;;20.64;90.03
58658;BME280;44428;45.630;13.786;2022-09-09T00:47:46;101086.47;;;20.57;91.66
58658;BME280;44428;45.630;13.786;2022-09-09T00:58:24;101088.38;;;20.39;94.50
58658;BME280;44428;45.630;13.786;2022-09-09T01:01:06;101093.41;;;20.42;94.65
58658;BME280;44428;45.630;13.786;2022-09-09T01:06:15;101097.81;;;20.51;92.63
58658;BME280;44428;45.630;13.786;2022-09-09T01:17:04;101093.53;;;20.75;89.98
58658;BME280;44428;45.630;13.786;2022-09-09T01:19:47;101093.56;;;20.83;88.93
58658;BME280;44428;45.630;13.786;2022-09-09T01:28:03;101082.81;;;20.75;89.18
58658;BME280;44428;45.630;13.786;2022-09-09T01:30:33;101088.84;;;20.69;90.44
58658;BME280;44428;45.630;13.786;2022-09-09T01:33:00;101085.81;;;20.64;91.55
58658;BME280;44428;45.630;13.786;2022-09-09T01:35:48;101080.03;;;20.50;92.93
58658;BME280;44428;45.630;13.786;2022-09-09T01:38:17;101076.66;;;20.48;94.18
58658;BME280;44428;45.630;13.786;2022-09-09T01:40:44;101081.09;;;20.57;92.59
58658;BME280;44428;45.630;13.786;2022-09-09T01:43:10;101081.09;;;20.57;92.15
58658;BME280;44428;45.630;13.786;2022-09-09T01:45:37;101076.75;;;20.65;91.97
58658;BME280;44428;45.630;13.786;2022-09-09T01:48:04;101068.03;;;20.71;91.55
58658;BME280;44428;45.630;13.786;2022-09-09T01:50:42;101065.69;;;20.84;89.71
58658;BME280;44428;45.630;13.786;2022-09-09T01:53:08;101072.75;;;20.85;89.71
58658;BME280;44428;45.630;13.786;2022-09-09T01:55:39;101073.59;;;20.86;89.77
58658;BME280;44428;45.630;13.786;2022-09-09T02:03:51;101078.13;;;21.01;89.77
58658;BME280;44428;45.630;13.786;2022-09-09T02:06:37;101071.44;;;21.14;88.96
58658;BME280;44428;45.630;13.786;2022-09-09T02:09:17;101079.50;;;21.14;88.86
58658;BME280;44428;45.630;13.786;2022-09-09T02:11:47;101077.78;;;21.21;87.93
58658;BME280;44428;45.630;13.786;2022-09-09T02:14:25;101072.75;;;21.34;86.77
58658;BME280;44428;45.630;13.786;2022-09-09T02:17:01;101072.97;;;21.41;85.37
58658;BME280;44428;45.630;13.786;2022-09-09T02:19:49;101069.78;;;21.45;84.51
58658;BME280;44428;45.630;13.786;2022-09-09T02:22:28;101064.06;;;21.48;83.29
58658;BME280;44428;45.630;13.786;2022-09-09T02:24:58;101075.50;;;21.42;83.13
58658;BME280;44428;45.630;13.786;2022-09-09T02:27:27;101066.75;;;21.40;83.19
58658;BME280;44428;45.630;13.786;2022-09-09T02:29:54;101074.44;;;21.35;83.12
58658;BME280;44428;45.630;13.786;2022-09-09T02:32:35;101069.25;;;21.25;82.94
58658;BME280;44428;45.630;13.786;2022-09-09T02:35:12;101083.16;;;21.21;83.19
58658;BME280;44428;45.630;13.786;2022-09-09T02:37:42;101071.09;;;21.17;82.67
58658;BME280;44428;45.630;13.786;2022-09-09T02:40:11;101074.13;;;21.14;82.87
58658;BME280;44428;45.630;13.786;2022-09-09T02:42:44;101070.75;;;21.20;81.59
58658;BME280;44428;45.630;13.786;2022-09-09T02:45:12;101074.47;;;21.19;81.50
58658;BME280;44428;45.630;13.786;2022-09-09T02:47:48;101072.75;;;21.34;80.30
58658;BME280;44428;45.630;13.786;2022-09-09T02:55:39;101061.00;;;21.27;80.05
58658;BME280;44428;45.630;13.786;2022-09-09T02:58:09;101059.00;;;21.29;79.73
58658;BME280;44428;45.630;13.786;2022-09-09T03:00:38;101054.97;;;21.17;80.47
58658;BME280;44428;45.630;13.786;2022-09-09T03:03:09;101054.97;;;21.17;79.89
58658;BME280;44428;45.630;13.786;2022-09-09T03:05:35;101047.91;;;21.16;79.63
58658;BME280;44428;45.630;13.786;2022-09-09T03:08:03;101050.25;;;21.11;79.88
58658;BME280;44428;45.630;13.786;2022-09-09T03:10:29;101050.44;;;21.17;78.82
58658;BME280;44428;45.630;13.786;2022-09-09T03:12:54;101051.25;;;21.18;78.81
58658;BME280;44428;45.630;13.786;2022-09-09T03:15:21;101050.09;;;21.20;78.38
58658;BME280;44428;45.630;13.786;2022-09-09T03:17:47;101040.16;;;21.21;77.86
58658;BME280;44428;45.630;13.786;2022-09-09T03:20:13;101033.47;;;21.17;77.99
58658;BME280;44428;45.630;13.786;2022-09-09T03:22:39;101033.47;;;21.17;78.35
58658;BME280;44428;45.630;13.786;2022-09-09T03:25:05;101030.09;;;21.15;78.72
58658;BME280;44428;45.630;13.786;2022-09-09T03:27:33;101027.94;;;21.10;78.94
58658;BME280;44428;45.630;13.786;2022-09-09T03:29:59;101020.91;;;21.09;78.76
58658;BME280;44428;45.630;13.786;2022-09-09T03:32:29;101026.75;;;21.13;77.91
58658;BME280;44428;45.630;13.786;2022-09-09T03:34:56;101023.41;;;21.11;78.40
58658;BME280;44428;45.630;13.786;2022-09-09T03:37:23;101032.81;;;21.07;78.51
58658;BME280;44428;45.630;13.786;2022-09-09T03:39:49;101034.13;;;21.11;78.14
58658;BME280;44428;45.630;13.786;2022-09-09T03:42:17;101026.75;;;21.13;78.23
58658;BME280;44428;45.630;13.786;2022-09-09T03:44:46;101032.81;;;21.07;78.67
58658;BME280;44428;45.630;13.786;2022-09-09T03:47:21;101033.47;;;21.00;79.22
58658;BME280;44428;45.630;13.786;2022-09-09T03:49:54;101032.47;;;21.10;78.64
58658;BME280;44428;45.630;13.786;2022-09-09T03:52:20;101023.06;;;21.05;79.13
58658;BME280;44428;45.630;13.786;2022-09-09T03:54:47;101030.09;;;20.90;79.82
58658;BME280;44428;45.630;13.786;2022-09-09T03:57:13;101029.78;;;20.85;80.39
58658;BME280;44428;45.630;13.786;2022-09-09T03:59:43;101020.72;;;20.86;80.42
58658;BME280;44428;45.630;13.786;2022-09-09T04:02:09;101029.78;;;20.85;81.00
58658;BME280;44428;45.630;13.786;2022-09-09T04:04:34;101026.59;;;20.90;80.89
58658;BME280;44428;45.630;13.786;2022-09-09T04:07:00;101034.50;;;20.91;80.99
58658;BME280;44428;45.630;13.786;2022-09-09T04:09:26;101026.78;;;20.88;80.93
58658;BME280;44428;45.630;13.786;2022-09-09T04:11:52;101032.13;;;20.80;81.48
58658;BME280;44428;45.630;13.786;2022-09-09T04:14:19;101028.59;;;20.71;82.07
58658;BME280;44428;45.630;13.786;2022-09-09T04:16:45;101029.44;;;20.72;82.34
58658;BME280;44428;45.630;13.786;2022-09-09T04:19:12;101025.41;;;20.68;82.72
58658;BME280;44428;45.630;13.786;2022-09-09T04:21:41;101025.22;;;20.61;83.39
58658;BME280;44428;45.630;13.786;2022-09-09T04:24:07;101031.41;;;20.53;84.01
58658;BME280;44428;45.630;13.786;2022-09-09T04:26:34;101036.13;;;20.59;83.90
58658;BME280;44428;45.630;13.786;2022-09-09T04:29:03;101030.75;;;20.59;83.47
58658;BME280;44428;45.630;13.786;2022-09-09T04:31:29;101037.63;;;20.54;83.79
58658;BME280;44428;45.630;13.786;2022-09-09T04:33:55;101039.94;;;20.49;84.10
58658;BME280;44428;45.630;13.786;2022-09-09T04:36:21;101030.69;;;20.51;83.79
58658;BME280;44428;45.630;13.786;2022-09-09T04:38:49;101035.75;;;20.54;83.66
58658;BME280;44428;45.630;13.786;2022-09-09T04:41:15;101038.16;;;20.57;83.23
58658;BME280;44428;45.630;13.786;2022-09-09T04:43:43;101032.78;;;20.57;83.44
58658;BME280;44428;45.630;13.786;2022-09-09T04:46:09;101036.13;;;20.59;83.05
58658;BME280;44428;45.630;13.786;2022-09-09T04:48:35;101021.38;;;20.64;82.80
58658;BME280;44428;45.630;13.786;2022-09-09T04:51:05;101033.09;;;20.63;83.15
58658;BME280;44428;45.630;13.786;2022-09-09T04:53:32;101028.41;;;20.65;82.73
58658;BME280;44428;45.630;13.786;2022-09-09T04:56:05;101030.25;;;20.72;81.84
58658;BME280;44428;45.630;13.786;2022-09-09T04:58:36;101030.78;;;20.76;82.14
58658;BME280;44428;45.630;13.786;2022-09-09T05:01:09;101027.41;;;20.74;82.25
58658;BME280;44428;45.630;13.786;2022-09-09T05:03:36;101035.84;;;20.79;81.96
58658;BME280;44428;45.630;13.786;2022-09-09T05:06:12;101030.47;;;20.79;81.89
58658;BME280;44428;45.630;13.786;2022-09-09T05:08:40;101038.50;;;20.87;81.14
58658;BME280;44428;45.630;13.786;2022-09-09T05:11:23;101043.53;;;20.90;81.29
58658;BME280;44428;45.630;13.786;2022-09-09T05:13:52;101039.53;;;20.94;80.61
58658;BME280;44428;45.630;13.786;2022-09-09T05:16:19;101040.19;;;21.04;79.37
58658;BME280;44428;45.630;13.786;2022-09-09T05:18:46;101038.19;;;21.07;79.10
58658;BME280;44428;45.630;13.786;2022-09-09T05:21:14;101029.44;;;21.13;78.63
58658;BME280;44428;45.630;13.786;2022-09-09T05:23:40;101030.44;;;21.28;77.52
58658;BME280;44428;45.630;13.786;2022-09-09T05:26:09;101027.91;;;21.26;77.73
58658;BME280;44428;45.630;13.786;2022-09-09T05:28:36;101037.16;;;21.32;77.54
58658;BME280;44428;45.630;13.786;2022-09-09T05:31:05;101028.94;;;21.34;77.83
58658;BME280;44428;45.630;13.786;2022-09-09T05:33:34;101034.50;;;21.40;77.50
58658;BME280;44428;45.630;13.786;2022-09-09T05:36:02;101040.84;;;21.47;76.77
58658;BME280;44428;45.630;13.786;2022-09-09T05:38:29;101041.53;;;21.58;76.55
58658;BME280;44428;45.630;13.786;2022-09-09T05:40:56;101037.63;;;21.60;75.41
58658;BME280;44428;45.630;13.786;2022-09-09T05:43:23;101044.50;;;21.63;75.46
58658;BME280;44428;45.630;13.786;2022-09-09T05:46:11;101037.75;;;21.75;75.39
58658;BME280;44428;45.630;13.786;2022-09-09T05:48:41;101043.44;;;21.88;74.23
58658;BME280;44428;45.630;13.786;2022-09-09T05:51:12;101044.97;;;22.84;70.46
58658;BME280;44428;45.630;13.786;2022-09-09T05:53:41;101039.16;;;24.52;63.70
58658;BME280;44428;45.630;13.786;2022-09-09T05:56:16;101048.34;;;25.50;60.99
58658;BME280;44428;45.630;13.786;2022-09-09T05:58:46;101038.50;;;26.80;56.53
58658;BME280;44428;45.630;13.786;2022-09-09T06:01:16;101040.16;;;27.74;53.09
58658;BME280;44428;45.630;13.786;2022-09-09T06:03:44;101035.91;;;28.05;50.96
58658;BME280;44428;45.630;13.786;2022-09-09T06:06:15;101034.78;;;28.96;49.33
58658;BME280;44428;45.630;13.786;2022-09-09T06:08:44;101030.34;;;29.02;47.51
58658;BME280;44428;45.630;13.786;2022-09-09T06:13:45;101010.91;;;30.64;44.77
58658;BME280;44428;45.630;13.786;2022-09-09T06:16:15;101002.59;;;31.36;42.67
58658;BME280;44428;45.630;13.786;2022-09-09T06:18:42;101007.75;;;31.96;41.96
58658;BME280;44428;45.630;13.786;2022-09-09T06:21:15;101004.59;;;32.45;39.23
58658;BME280;44428;45.630;13.786;2022-09-09T06:23:43;101008.63;;;32.88;39.04
58658;BME280;44428;45.630;13.786;2022-09-09T06:26:14;101004.16;;;33.15;37.92
58658;BME280;44428;45.630;13.786;2022-09-09T06:28:40;101021.16;;;31.98;39.82
58658;BME280;44428;45.630;13.786;2022-09-09T06:31:10;101006.97;;;32.87;38.28
58658;BME280;44428;45.630;13.786;2022-09-09T06:33:39;101016.47;;;31.58;40.75
58658;BME280;44428;45.630;13.786;2022-09-09T06:36:11;101010.41;;;30.25;43.55
58658;BME280;44428;45.630;13.786;2022-09-09T06:38:38;101008.41;;;29.21;46.55
58658;BME280;44428;45.630;13.786;2022-09-09T06:41:04;101005.75;;;28.90;46.55
58658;BME280;44428;45.630;13.786;2022-09-09T06:43:32;101014.53;;;28.15;49.24
58658;BME280;44428;45.630;13.786;2022-09-09T06:46:01;101019.72;;;27.78;49.54
58658;BME280;44428;45.630;13.786;2022-09-09T06:48:28;101013.38;;;28.74;47.93
58658;BME280;44428;45.630;13.786;2022-09-09T06:51:21;101009.34;;;30.26;44.32
58658;BME280;44428;45.630;13.786;2022-09-09T06:53:51;101002.31;;;32.13;40.02
58658;BME280;44428;45.630;13.786;2022-09-09T06:58:49;100984.31;;;34.35;35.43
58658;BME280;44428;45.630;13.786;2022-09-09T07:01:24;100992.97;;;34.81;34.86
58658;BME280;44428;45.630;13.786;2022-09-09T07:03:52;100981.00;;;34.97;34.10
58658;BME280;44428;45.630;13.786;2022-09-09T07:06:21;100978.69;;;34.79;34.54
58658;BME280;44428;45.630;13.786;2022-09-09T07:08:54;100979.81;;;35.68;33.36
58658;BME280;44428;45.630;13.786;2022-09-09T07:11:24;100978.31;;;36.08;32.38
58658;BME280;44428;45.630;13.786;2022-09-09T07:13:53;100976.09;;;36.10;32.21
58658;BME280;44428;45.630;13.786;2022-09-09T07:16:20;100975.28;;;35.41;33.12
58658;BME280;44428;45.630;13.786;2022-09-09T07:18:48;100968.97;;;36.09;32.50
58658;BME280;44428;45.630;13.786;2022-09-09T07:21:16;100972.19;;;34.31;35.35
58658;BME280;44428;45.630;13.786;2022-09-09T07:23:42;100966.63;;;33.77;36.52
58658;BME280;44428;45.630;13.786;2022-09-09T07:26:14;100972.91;;;34.48;35.06
58658;BME280;44428;45.630;13.786;2022-09-09T07:28:41;100967.69;;;34.79;34.18
58658;BME280;44428;45.630;13.786;2022-09-09T07:31:13;100973.81;;;34.86;34.31
58658;BME280;44428;45.630;13.786;2022-09-09T07:33:39;100965.69;;;36.27;32.30
58658;BME280;44428;45.630;13.786;2022-09-09T07:36:07;100976.66;;;37.50;30.18
58658;BME280;44428;45.630;13.786;2022-09-09T07:38:38;100982.59;;;37.67;30.07
58658;BME280;44428;45.630;13.786;2022-09-09T07:41:09;100982.59;;;37.77;29.69
58658;BME280;44428;45.630;13.786;2022-09-09T07:43:39;100986.34;;;37.97;29.57
58658;BME280;44428;45.630;13.786;2022-09-09T07:46:06;100986.88;;;38.04;28.95
58658;BME280;44428;45.630;13.786;2022-09-09T07:48:32;100979.44;;;37.99;29.58
58658;BME280;44428;45.630;13.786;2022-09-09T07:51:09;100988.78;;;36.21;32.15
58658;BME280;44428;45.630;13.786;2022-09-09T07:53:38;100982.97;;;33.66;36.33
58658;BME280;44428;45.630;13.786;2022-09-09T07:56:06;100992.03;;;34.38;35.60
58658;BME280;44428;45.630;13.786;2022-09-09T07:58:33;100988.72;;;34.36;35.71
58658;BME280;44428;45.630;13.786;2022-09-09T08:00:58;101000.53;;;33.70;37.09
58658;BME280;44428;45.630;13.786;2022-09-09T08:03:24;100994.84;;;34.48;35.86
58658;BME280;44428;45.630;13.786;2022-09-09T08:05:50;100980.75;;;33.63;36.82
58658;BME280;44428;45.630;13.786;2022-09-09T08:08:17;100978.69;;;32.07;40.16
58658;BME280;44428;45.630;13.786;2022-09-09T08:10:42;100963.09;;;31.90;40.22
58658;BME280;44428;45.630;13.786;2022-09-09T08:13:09;100973.84;;;31.10;42.12
58658;BME280;44428;45.630;13.786;2022-09-09T08:15:35;100977.84;;;30.30;44.47
58658;BME280;44428;45.630;13.786;2022-09-09T08:18:02;100978.78;;;30.24;44.22
58658;BME280;44428;45.630;13.786;2022-09-09T08:20:29;100981.41;;;29.82;45.43
58658;BME280;44428;45.630;13.786;2022-09-09T08:22:56;100980.75;;;29.25;46.98
58658;BME280;44428;45.630;13.786;2022-09-09T08:25:22;100974.00;;;28.84;48.24
58658;BME280;44428;45.630;13.786;2022-09-09T08:27:48;100965.81;;;28.59;48.79
58658;BME280;44428;45.630;13.786;2022-09-09T08:30:14;100961.53;;;28.38;49.88
58658;BME280;44428;45.630;13.786;2022-09-09T08:32:40;100961.03;;;28.79;48.72
58658;BME280;44428;45.630;13.786;2022-09-09T08:35:06;100968.34;;;29.47;47.26
58658;BME280;44428;45.630;13.786;2022-09-09T08:37:33;100967.66;;;30.37;45.58
58658;BME280;44428;45.630;13.786;2022-09-09T08:39:58;100969.81;;;30.35;44.67
58658;BME280;44428;45.630;13.786;2022-09-09T08:42:36;100952.22;;;30.01;46.05
58658;BME280;44428;45.630;13.786;2022-09-09T08:45:28;100963.41;;;29.62;46.69
58658;BME280;44428;45.630;13.786;2022-09-09T08:50:38;100961.09;;;29.96;47.09
58658;BME280;44428;45.630;13.786;2022-09-09T08:53:19;100965.88;;;34.03;38.73
58658;BME280;44428;45.630;13.786;2022-09-09T08:55:54;100962.44;;;32.74;40.01
58658;BME280;44428;45.630;13.786;2022-09-09T08:58:53;100954.75;;;31.10;43.08
58658;BME280;44428;45.630;13.786;2022-09-09T09:01:41;100946.16;;;30.17;45.28
58658;BME280;44428;45.630;13.786;2022-09-09T09:07:07;100953.50;;;29.06;48.45
58658;BME280;44428;45.630;13.786;2022-09-09T09:12:18;100968.47;;;28.34;50.34
58658;BME280;44428;45.630;13.786;2022-09-09T09:14:47;100949.81;;;28.05;51.38
58658;BME280;44428;45.630;13.786;2022-09-09T09:17:18;100936.97;;;27.88;51.45
58658;BME280;44428;45.630;13.786;2022-09-09T09:19:46;100908.25;;;27.60;52.32
58658;BME280;44428;45.630;13.786;2022-09-09T09:27:40;100933.78;;;26.39;60.73
58658;BME280;44428;45.630;13.786;2022-09-09T09:32:40;100985.78;;;25.32;66.76
58658;BME280;44428;45.630;13.786;2022-09-09T09:35:11;101028.25;;;24.09;68.82
58658;BME280;44428;45.630;13.786;2022-09-09T09:37:40;101083.81;;;21.80;72.27
58658;BME280;44428;45.630;13.786;2022-09-09T09:40:11;101151.44;;;20.35;79.14
58658;BME280;44428;45.630;13.786;2022-09-09T09:42:48;101167.13;;;19.70;86.59
58658;BME280;44428;45.630;13.786;2022-09-09T09:45:41;101167.84;;;19.36;90.40
58658;BME280;44428;45.630;13.786;2022-09-09T09:48:10;101161.84;;;19.24;88.53
58658;BME280;44428;45.630;13.786;2022-09-09T09:51:02;101146.63;;;18.89;90.73
58658;BME280;44428;45.630;13.786;2022-09-09T09:53:33;101184.88;;;18.71;93.69
58658;BME280;44428;45.630;13.786;2022-09-09T09:56:01;101183.88;;;18.72;94.50
58658;BME280;44428;45.630;13.786;2022-09-09T09:58:31;101140.63;;;18.49;97.41
58658;BME280;44428;45.630;13.786;2022-09-09T10:01:01;101131.66;;;18.41;100.00
58658;BME280;44428;45.630;13.786;2022-09-09T10:03:33;101116.09;;;18.54;100.00
58658;BME280;44428;45.630;13.786;2022-09-09T10:06:04;101112.13;;;18.58;100.00
58658;BME280;44428;45.630;13.786;2022-09-09T10:08:34;101104.56;;;18.71;100.00
58658;BME280;44428;45.630;13.786;2022-09-09T10:16:17;101114.63;;;19.05;96.97
58658;BME280;44428;45.630;13.786;2022-09-09T10:18:52;101108.66;;;19.11;95.63
58658;BME280;44428;45.630;13.786;2022-09-09T10:24:46;101132.69;;;19.39;95.68
58658;BME280;44428;45.630;13.786;2022-09-09T10:27:19;101116.91;;;19.36;93.53
58658;BME280;44428;45.630;13.786;2022-09-09T10:35:33;101100.81;;;20.40;90.03
58658;BME280;44428;45.630;13.786;2022-09-09T10:57:05;101058.13;;;22.79;79.10
58658;BME280;44428;45.630;13.786;2022-09-09T10:59:39;101049.06;;;23.56;74.67
58658;BME280;44428;45.630;13.786;2022-09-09T11:02:16;101054.59;;;25.01;69.92
58658;BME280;44428;45.630;13.786;2022-09-09T11:04:53;101055.19;;;26.70;63.55
58658;BME280;44428;45.630;13.786;2022-09-09T11:10:45;101051.63;;;26.09;59.87
58658;BME280;44428;45.630;13.786;2022-09-09T11:16:16;101054.31;;;28.03;58.24
58658;BME280;44428;45.630;13.786;2022-09-09T11:18:45;101059.28;;;28.89;54.71
58658;BME280;44428;45.630;13.786;2022-09-09T11:21:24;101049.19;;;29.47;51.07
58658;BME280;44428;45.630;13.786;2022-09-09T11:23:53;101043.09;;;27.73;54.59
58658;BME280;44428;45.630;13.786;2022-09-09T11:26:44;101031.03;;;27.49;55.84
58658;BME280;44428;45.630;13.786;2022-09-09T11:35:22;101018.66;;;28.94;54.39
58658;BME280;44428;45.630;13.786;2022-09-09T11:38:27;101025.91;;;29.32;53.01
58658;BME280;44428;45.630;13.786;2022-09-09T11:41:07;101025.03;;;28.82;55.42
58658;BME280;44428;45.630;13.786;2022-09-09T11:43:43;101023.47;;;28.67;53.95
58658;BME280;44428;45.630;13.786;2022-09-09T11:46:11;101016.63;;;28.13;54.22
58658;BME280;44428;45.630;13.786;2022-09-09T11:49:25;101008.78;;;27.92;53.06
58658;BME280;44428;45.630;13.786;2022-09-09T11:51:52;101019.28;;;27.81;54.46
58658;BME280;44428;45.630;13.786;2022-09-09T11:54:30;101010.03;;;27.96;54.41
58658;BME280;44428;45.630;13.786;2022-09-09T11:56:57;101006.06;;;28.37;54.66
58658;BME280;44428;45.630;13.786;2022-09-09T11:59:26;101003.63;;;28.92;52.17
58658;BME280;44428;45.630;13.786;2022-09-09T12:02:03;100999.19;;;29.22;52.81
58658;BME280;44428;45.630;13.786;2022-09-09T12:04:40;101002.25;;;29.51;52.55
58658;BME280;44428;45.630;13.786;2022-09-09T12:09:58;101007.09;;;30.04;52.11
58658;BME280;44428;45.630;13.786;2022-09-09T12:12:34;100993.00;;;30.26;50.96
58658;BME280;44428;45.630;13.786;2022-09-09T12:17:45;100985.59;;;30.45;47.01
58658;BME280;44428;45.630;13.786;2022-09-09T12:25:29;100981.91;;;30.39;47.78
58658;BME280;44428;45.630;13.786;2022-09-09T12:28:05;100983.50;;;30.70;46.11
58658;BME280;44428;45.630;13.786;2022-09-09T12:33:34;100964.84;;;30.32;46.90
58658;BME280;44428;45.630;13.786;2022-09-09T12:36:01;100946.78;;;30.31;48.43
58658;BME280;44428;45.630;13.786;2022-09-09T12:38:36;100954.66;;;30.39;48.21
58658;BME280;44428;45.630;13.786;2022-09-09T12:41:03;100954.22;;;30.66;46.78
58658;BME280;44428;45.630;13.786;2022-09-09T12:43:29;100957.59;;;30.91;48.04
58658;BME280;44428;45.630;13.786;2022-09-09T12:45:59;100944.56;;;30.93;45.70
58658;BME280;44428;45.630;13.786;2022-09-09T12:48:38;100947.38;;;31.10;45.20
58658;BME280;44428;45.630;13.786;2022-09-09T12:51:21;100937.53;;;30.86;44.10
58658;BME280;44428;45.630;13.786;2022-09-09T12:53:49;100947.44;;;30.15;47.19
58658;BME280;44428;45.630;13.786;2022-09-09T12:56:24;100950.81;;;29.43;47.16
58658;BME280;44428;45.630;13.786;2022-09-09T12:58:53;100943.25;;;29.08;48.31
58658;BME280;44428;45.630;13.786;2022-09-09T13:03:51;100938.25;;;29.05;49.58
58658;BME280;44428;45.630;13.786;2022-09-09T13:06:26;100928.41;;;29.22;49.22
58658;BME280;44428;45.630;13.786;2022-09-09T13:08:53;100939.22;;;28.86;49.17
58658;BME280;44428;45.630;13.786;2022-09-09T13:11:26;100930.03;;;28.87;49.47
58658;BME280;44428;45.630;13.786;2022-09-09T13:13:55;100921.94;;;29.05;48.31
58658;BME280;44428;45.630;13.786;2022-09-09T13:16:35;100919.91;;;28.44;49.49
58658;BME280;44428;45.630;13.786;2022-09-09T13:19:16;100920.09;;;28.17;50.43
58658;BME280;44428;45.630;13.786;2022-09-09T13:21:42;100917.81;;;28.96;48.26
58658;BME280;44428;45.630;13.786;2022-09-09T13:24:27;100910.44;;;29.03;49.43
58658;BME280;44428;45.630;13.786;2022-09-09T13:26:59;100900.53;;;29.09;49.01
58658;BME280;44428;45.630;13.786;2022-09-09T13:29:27;100895.88;;;29.83;49.13
58658;BME280;44428;45.630;13.786;2022-09-09T13:31:54;100893.59;;;30.52;47.68
58658;BME280;44428;45.630;13.786;2022-09-09T13:34:33;100882.38;;;30.72;45.85
58658;BME280;44428;45.630;13.786;2022-09-09T13:37:21;100895.50;;;30.09;46.50
58658;BME280;44428;45.630;13.786;2022-09-09T13:39:52;100884.00;;;29.65;48.04
58658;BME280;44428;45.630;13.786;2022-09-09T13:42:26;100887.94;;;29.14;48.89
58658;BME280;44428;45.630;13.786;2022-09-09T13:44:53;100888.78;;;28.65;51.13
58658;BME280;44428;45.630;13.786;2022-09-09T13:47:28;100878.59;;;28.28;51.61
58658;BME280;44428;45.630;13.786;2022-09-09T13:49:54;100879.78;;;28.14;53.02
58658;BME280;44428;45.630;13.786;2022-09-09T13:52:20;100883.75;;;28.12;52.60
58658;BME280;44428;45.630;13.786;2022-09-09T13:54:48;100877.59;;;27.91;53.87
58658;BME280;44428;45.630;13.786;2022-09-09T13:57:23;100887.63;;;27.91;53.81
58658;BME280;44428;45.630;13.786;2022-09-09T13:59:52;100880.94;;;27.93;53.70
58658;BME280;44428;45.630;13.786;2022-09-09T14:02:18;100876.88;;;28.34;53.72
58658;BME280;44428;45.630;13.786;2022-09-09T14:04:44;100867.81;;;28.72;53.01
58658;BME280;44428;45.630;13.786;2022-09-09T14:07:19;100879.97;;;29.13;50.21
58658;BME280;44428;45.630;13.786;2022-09-09T14:09:45;100872.78;;;29.18;49.58
58658;BME280;44428;45.630;13.786;2022-09-09T14:12:16;100873.25;;;29.15;49.45
58658;BME280;44428;45.630;13.786;2022-09-09T14:14:42;100866.59;;;29.11;50.78
58658;BME280;44428;45.630;13.786;2022-09-09T14:17:08;100872.16;;;28.98;50.47
58658;BME280;44428;45.630;13.786;2022-09-09T14:19:34;100871.72;;;28.58;51.13
58658;BME280;44428;45.630;13.786;2022-09-09T14:22:00;100872.13;;;28.29;51.84
58658;BME280;44428;45.630;13.786;2022-09-09T14:24:27;100873.34;;;28.34;51.83
58658;BME280;44428;45.630;13.786;2022-09-09T14:26:53;100881.16;;;28.23;52.25
58658;BME280;44428;45.630;13.786;2022-09-09T14:29:19;100866.00;;;28.34;52.22
58658;BME280;44428;45.630;13.786;2022-09-09T14:31:45;100870.53;;;28.47;51.50
58658;BME280;44428;45.630;13.786;2022-09-09T14:34:11;100874.81;;;28.61;51.84
58658;BME280;44428;45.630;13.786;2022-09-09T14:36:37;100868.97;;;28.83;51.06
58658;BME280;44428;45.630;13.786;2022-09-09T14:39:03;100870.50;;;28.97;49.46
58658;BME280;44428;45.630;13.786;2022-09-09T14:41:30;100872.88;;;29.12;49.94
58658;BME280;44428;45.630;13.786;2022-09-09T14:43:56;100871.50;;;29.21;49.54
58658;BME280;44428;45.630;13.786;2022-09-09T14:46:22;100860.72;;;29.14;50.03
58658;BME280;44428;45.630;13.786;2022-09-09T14:48:48;100860.19;;;29.24;50.55
58658;BME280;44428;45.630;13.786;2022-09-09T14:51:17;100873.03;;;29.35;48.34
58658;BME280;44428;45.630;13.786;2022-09-09T14:53:45;100877.00;;;29.51;47.88
58658;BME280;44428;45.630;13.786;2022-09-09T14:56:17;100871.41;;;29.64;48.53
58658;BME280;44428;45.630;13.786;2022-09-09T14:58:43;100878.22;;;29.55;48.26
58658;BME280;44428;45.630;13.786;2022-09-09T15:01:15;100875.31;;;29.20;49.51
58658;BME280;44428;45.630;13.786;2022-09-09T15:03:43;100870.75;;;28.70;50.40
58658;BME280;44428;45.630;13.786;2022-09-09T15:06:14;100876.66;;;28.86;50.02
58658;BME280;44428;45.630;13.786;2022-09-09T15:08:44;100878.00;;;29.02;48.86
58658;BME280;44428;45.630;13.786;2022-09-09T15:11:11;100875.81;;;29.10;47.73
58658;BME280;44428;45.630;13.786;2022-09-09T15:13:39;100879.44;;;29.22;47.32